sensor_id;sensor_type;location;lat;lon;timestamp;pressure;altitude;pressure_sealevel;temperature;humidity
62103;BME280;48077;48.104;11.702;2022-07-18T00:00:06;96288.56;;;13.89;65.50
62103;BME280;48077;48.104;11.702;2022-07-18T00:02:30;96269.34;;;13.81;65.73
62103;BME280;48077;48.104;11.702;2022-07-18T00:04:53;96255.50;;;13.72;65.93
62103;BME280;48077;48.104;11.702;2022-07-18T00:07:17;96271.22;;;13.80;66.10
62103;BME280;48077;48.104;11.702;2022-07-18T00:09:42;96277.88;;;13.77;66.43
62103;BME280;48077;48.104;11.702;2022-07-18T00:12:07;96273.66;;;13.70;66.70
62103;BME280;48077;48.104;11.702;2022-07-18T00:14:31;96265.97;;;13.62;66.29
62103;BME280;48077;48.104;11.702;2022-07-18T00:16:55;96277.75;;;13.61;66.35
62103;BME280;48077;48.104;11.702;2022-07-18T00:19:18;96261.88;;;13.47;66.44
62103;BME280;48077;48.104;11.702;2022-07-18T00:21:42;96284.03;;;13.54;66.70
62103;BME280;48077;48.104;11.702;2022-07-18T00:24:05;96279.03;;;13.46;66.63
62103;BME280;48077;48.104;11.702;2022-07-18T00:26:28;96278.44;;;13.44;66.66
62103;BME280;48077;48.104;11.702;2022-07-18T00:28:52;96277.38;;;13.45;66.89
62103;BME280;48077;48.104;11.702;2022-07-18T00:31:15;96277.84;;;13.42;67.15
62103;BME280;48077;48.104;11.702;2022-07-18T00:33:39;96270.03;;;13.41;67.09
62103;BME280;48077;48.104;11.702;2022-07-18T00:36:02;96254.31;;;13.32;67.12
62103;BME280;48077;48.104;11.702;2022-07-18T00:38:26;96278.44;;;13.44;67.32
62103;BME280;48077;48.104;11.702;2022-07-18T00:40:49;96267.13;;;13.30;67.35
62103;BME280;48077;48.104;11.702;2022-07-18T00:43:13;96274.34;;;13.30;67.21
62103;BME280;48077;48.104;11.702;2022-07-18T00:45:37;96259.75;;;13.26;67.59
62103;BME280;48077;48.104;11.702;2022-07-18T00:48:08;96275.50;;;13.34;67.37
62103;BME280;48077;48.104;11.702;2022-07-18T00:50:31;96263.34;;;13.20;67.83
62103;BME280;48077;48.104;11.702;2022-07-18T00:52:55;96265.81;;;13.21;67.75
62103;BME280;48077;48.104;11.702;2022-07-18T00:55:18;96266.25;;;13.18;67.93
62103;BME280;48077;48.104;11.702;2022-07-18T00:57:42;96251.56;;;13.09;68.01
62103;BME280;48077;48.104;11.702;2022-07-18T01:00:08;96267.06;;;13.19;68.06
62103;BME280;48077;48.104;11.702;2022-07-18T01:02:50;96238.13;;;12.97;68.08
62103;BME280;48077;48.104;11.702;2022-07-18T01:05:14;96267.88;;;13.19;68.34
62103;BME280;48077;48.104;11.702;2022-07-18T01:07:37;96270.56;;;13.19;68.54
62103;BME280;48077;48.104;11.702;2022-07-18T01:10:01;96259.59;;;13.09;68.22
62103;BME280;48077;48.104;11.702;2022-07-18T01:12:26;96258.31;;;13.11;68.32
62103;BME280;48077;48.104;11.702;2022-07-18T01:14:49;96269.50;;;13.08;68.39
62103;BME280;48077;48.104;11.702;2022-07-18T01:17:17;96274.03;;;13.08;68.31
62103;BME280;48077;48.104;11.702;2022-07-18T01:19:42;96245.69;;;12.88;68.83
62103;BME280;48077;48.104;11.702;2022-07-18T01:22:06;96251.03;;;12.88;68.87
62103;BME280;48077;48.104;11.702;2022-07-18T01:24:29;96263.16;;;12.91;68.93
62103;BME280;48077;48.104;11.702;2022-07-18T01:26:52;96278.78;;;12.94;68.93
62103;BME280;48077;48.104;11.702;2022-07-18T01:29:16;96261.59;;;12.83;69.28
62103;BME280;48077;48.104;11.702;2022-07-18T01:31:39;96268.59;;;12.84;69.33
62103;BME280;48077;48.104;11.702;2022-07-18T01:34:03;96257.41;;;12.75;69.26
62103;BME280;48077;48.104;11.702;2022-07-18T01:36:26;96261.13;;;12.74;69.48
62103;BME280;48077;48.104;11.702;2022-07-18T01:38:49;96254.59;;;12.70;69.71
62103;BME280;48077;48.104;11.702;2022-07-18T01:41:13;96248.63;;;12.68;69.55
62103;BME280;48077;48.104;11.702;2022-07-18T01:43:39;96255.66;;;12.69;69.75
62103;BME280;48077;48.104;11.702;2022-07-18T01:46:03;96272.78;;;12.80;69.96
62103;BME280;48077;48.104;11.702;2022-07-18T01:48:26;96257.03;;;12.72;69.82
62103;BME280;48077;48.104;11.702;2022-07-18T01:50:52;96277.06;;;12.81;70.00
62103;BME280;48077;48.104;11.702;2022-07-18T01:53:15;96263.19;;;12.72;70.06
62103;BME280;48077;48.104;11.702;2022-07-18T01:55:38;96265.44;;;12.75;70.40
62103;BME280;48077;48.104;11.702;2022-07-18T01:58:02;96250.38;;;12.63;70.40
62103;BME280;48077;48.104;11.702;2022-07-18T02:00:26;96258.31;;;12.69;70.41
62103;BME280;48077;48.104;11.702;2022-07-18T02:02:49;96269.41;;;12.73;70.42
62103;BME280;48077;48.104;11.702;2022-07-18T02:05:13;96256.19;;;12.60;70.26
62103;BME280;48077;48.104;11.702;2022-07-18T02:07:38;96270.31;;;12.67;70.34
62103;BME280;48077;48.104;11.702;2022-07-18T02:10:09;96270.75;;;12.64;70.66
62103;BME280;48077;48.104;11.702;2022-07-18T02:12:34;96272.69;;;12.57;70.42
62103;BME280;48077;48.104;11.702;2022-07-18T02:14:57;96272.00;;;12.61;70.99
62103;BME280;48077;48.104;11.702;2022-07-18T02:17:20;96269.56;;;12.60;71.04
62103;BME280;48077;48.104;11.702;2022-07-18T02:19:44;96261.25;;;12.49;71.37
62103;BME280;48077;48.104;11.702;2022-07-18T02:22:08;96252.03;;;12.45;71.17
62103;BME280;48077;48.104;11.702;2022-07-18T02:24:31;96253.91;;;12.45;71.14
62103;BME280;48077;48.104;11.702;2022-07-18T02:26:55;96252.13;;;12.39;71.53
62103;BME280;48077;48.104;11.702;2022-07-18T02:29:19;96251.31;;;12.38;71.67
62103;BME280;48077;48.104;11.702;2022-07-18T02:31:42;96241.75;;;12.30;71.64
62103;BME280;48077;48.104;11.702;2022-07-18T02:34:05;96256.50;;;12.33;71.76
62103;BME280;48077;48.104;11.702;2022-07-18T02:36:33;96267.59;;;12.37;72.07
62103;BME280;48077;48.104;11.702;2022-07-18T02:38:56;96246.13;;;12.25;72.03
62103;BME280;48077;48.104;11.702;2022-07-18T02:41:20;96259.88;;;12.28;72.13
62103;BME280;48077;48.104;11.702;2022-07-18T02:43:43;96265.81;;;12.30;72.20
62103;BME280;48077;48.104;11.702;2022-07-18T02:46:07;96248.66;;;12.20;71.76
62103;BME280;48077;48.104;11.702;2022-07-18T02:48:30;96258.09;;;12.22;71.82
62103;BME280;48077;48.104;11.702;2022-07-18T02:50:53;96253.63;;;12.16;72.26
62103;BME280;48077;48.104;11.702;2022-07-18T02:53:17;96244.06;;;12.08;71.87
62103;BME280;48077;48.104;11.702;2022-07-18T02:55:42;96244.28;;;12.07;72.33
62103;BME280;48077;48.104;11.702;2022-07-18T02:58:05;96255.00;;;12.07;72.67
62103;BME280;48077;48.104;11.702;2022-07-18T03:00:29;96242.94;;;11.98;73.01
62103;BME280;48077;48.104;11.702;2022-07-18T03:02:52;96254.19;;;12.06;72.92
62103;BME280;48077;48.104;11.702;2022-07-18T03:05:16;96267.69;;;12.11;72.68
62103;BME280;48077;48.104;11.702;2022-07-18T03:07:39;96271.16;;;12.12;72.72
62103;BME280;48077;48.104;11.702;2022-07-18T03:10:04;96269.75;;;12.09;73.14
62103;BME280;48077;48.104;11.702;2022-07-18T03:12:28;96262.41;;;12.05;73.23
62103;BME280;48077;48.104;11.702;2022-07-18T03:14:51;96276.81;;;12.04;73.53
62103;BME280;48077;48.104;11.702;2022-07-18T03:17:14;96260.25;;;11.95;73.74
62103;BME280;48077;48.104;11.702;2022-07-18T03:19:38;96260.31;;;11.88;74.09
62103;BME280;48077;48.104;11.702;2022-07-18T03:22:02;96254.97;;;11.88;73.87
62103;BME280;48077;48.104;11.702;2022-07-18T03:24:26;96273.19;;;11.98;73.46
62103;BME280;48077;48.104;11.702;2022-07-18T03:26:49;96262.94;;;11.95;73.96
62103;BME280;48077;48.104;11.702;2022-07-18T03:29:13;96257.66;;;11.88;73.69
62103;BME280;48077;48.104;11.702;2022-07-18T03:31:36;96276.22;;;12.02;73.74
62103;BME280;48077;48.104;11.702;2022-07-18T03:33:59;96278.28;;;12.00;73.87
62103;BME280;48077;48.104;11.702;2022-07-18T03:36:23;96268.13;;;11.90;74.21
62103;BME280;48077;48.104;11.702;2022-07-18T03:38:46;96265.47;;;11.83;74.39
62103;BME280;48077;48.104;11.702;2022-07-18T03:41:10;96280.34;;;11.79;74.32
62103;BME280;48077;48.104;11.702;2022-07-18T03:43:34;96292.19;;;11.83;74.73
62103;BME280;48077;48.104;11.702;2022-07-18T03:45:57;96290.59;;;11.82;74.71
62103;BME280;48077;48.104;11.702;2022-07-18T03:48:21;96288.56;;;11.78;74.57
62103;BME280;48077;48.104;11.702;2022-07-18T03:50:44;96295.53;;;11.79;74.72
62103;BME280;48077;48.104;11.702;2022-07-18T03:53:07;96292.50;;;11.75;74.57
62103;BME280;48077;48.104;11.702;2022-07-18T03:55:31;96285.81;;;11.66;74.74
62103;BME280;48077;48.104;11.702;2022-07-18T03:57:54;96296.06;;;11.69;75.15
62103;BME280;48077;48.104;11.702;2022-07-18T04:00:18;96308.81;;;11.67;74.79
62103;BME280;48077;48.104;11.702;2022-07-18T04:02:43;96307.78;;;11.68;75.64
62103;BME280;48077;48.104;11.702;2022-07-18T04:05:07;96311.25;;;11.68;75.57
62103;BME280;48077;48.104;11.702;2022-07-18T04:07:31;96294.28;;;11.63;75.61
62103;BME280;48077;48.104;11.702;2022-07-18T04:09:55;96301.16;;;11.70;75.36
62103;BME280;48077;48.104;11.702;2022-07-18T04:12:18;96305.31;;;11.66;75.76
62103;BME280;48077;48.104;11.702;2022-07-18T04:14:41;96311.66;;;11.72;75.90
62103;BME280;48077;48.104;11.702;2022-07-18T04:17:05;96311.22;;;11.75;75.82
62103;BME280;48077;48.104;11.702;2022-07-18T04:19:28;96314.69;;;11.75;75.68
62103;BME280;48077;48.104;11.702;2022-07-18T04:21:51;96316.31;;;11.77;75.85
62103;BME280;48077;48.104;11.702;2022-07-18T04:24:15;96281.94;;;11.62;75.92
62103;BME280;48077;48.104;11.702;2022-07-18T04:26:38;96288.06;;;11.69;75.64
62103;BME280;48077;48.104;11.702;2022-07-18T04:29:02;96322.78;;;11.87;75.91
62103;BME280;48077;48.104;11.702;2022-07-18T04:31:25;96324.88;;;11.92;75.82
62103;BME280;48077;48.104;11.702;2022-07-18T04:33:48;96321.72;;;11.95;75.90
62103;BME280;48077;48.104;11.702;2022-07-18T04:36:12;96310.63;;;11.98;75.34
62103;BME280;48077;48.104;11.702;2022-07-18T04:38:35;96305.41;;;12.03;74.65
62103;BME280;48077;48.104;11.702;2022-07-18T04:41:00;96302.66;;;12.10;74.17
62103;BME280;48077;48.104;11.702;2022-07-18T04:43:23;96288.84;;;12.13;73.97
62103;BME280;48077;48.104;11.702;2022-07-18T04:45:47;96306.75;;;12.31;74.29
62103;BME280;48077;48.104;11.702;2022-07-18T04:48:10;96301.19;;;12.32;74.15
62103;BME280;48077;48.104;11.702;2022-07-18T04:50:34;96305.53;;;12.45;73.88
62103;BME280;48077;48.104;11.702;2022-07-18T04:52:58;96296.03;;;12.49;73.23
62103;BME280;48077;48.104;11.702;2022-07-18T04:55:22;96300.91;;;12.71;73.05
62103;BME280;48077;48.104;11.702;2022-07-18T04:57:45;96283.81;;;12.72;72.71
62103;BME280;48077;48.104;11.702;2022-07-18T05:00:12;96287.13;;;12.86;72.20
62103;BME280;48077;48.104;11.702;2022-07-18T05:02:45;96282.47;;;12.93;72.51
62103;BME280;48077;48.104;11.702;2022-07-18T05:05:10;96298.84;;;13.15;71.97
62103;BME280;48077;48.104;11.702;2022-07-18T05:07:34;96304.22;;;13.27;71.55
62103;BME280;48077;48.104;11.702;2022-07-18T05:09:57;96288.53;;;13.30;70.75
62103;BME280;48077;48.104;11.702;2022-07-18T05:12:21;96300.69;;;13.45;70.69
62103;BME280;48077;48.104;11.702;2022-07-18T05:14:46;96292.16;;;13.48;70.29
62103;BME280;48077;48.104;11.702;2022-07-18T05:17:09;96303.50;;;13.62;69.98
62103;BME280;48077;48.104;11.702;2022-07-18T05:19:33;96296.25;;;13.62;69.82
62103;BME280;48077;48.104;11.702;2022-07-18T05:21:56;96305.28;;;13.80;69.56
62103;BME280;48077;48.104;11.702;2022-07-18T05:24:19;96305.72;;;13.88;69.38
62103;BME280;48077;48.104;11.702;2022-07-18T05:26:43;96303.38;;;14.04;69.05
62103;BME280;48077;48.104;11.702;2022-07-18T05:29:06;96284.59;;;14.04;68.96
62103;BME280;48077;48.104;11.702;2022-07-18T05:31:30;96305.47;;;14.25;68.62
62103;BME280;48077;48.104;11.702;2022-07-18T05:33:53;96285.63;;;14.26;68.47
62103;BME280;48077;48.104;11.702;2022-07-18T05:36:16;96302.38;;;14.45;67.64
62103;BME280;48077;48.104;11.702;2022-07-18T05:38:40;96290.59;;;14.46;67.08
62103;BME280;48077;48.104;11.702;2022-07-18T05:41:03;96292.31;;;14.64;67.15
62103;BME280;48077;48.104;11.702;2022-07-18T05:43:27;96279.25;;;14.68;66.36
62103;BME280;48077;48.104;11.702;2022-07-18T05:45:50;96292.47;;;14.86;66.22
62103;BME280;48077;48.104;11.702;2022-07-18T05:48:13;96276.72;;;14.90;65.90
62103;BME280;48077;48.104;11.702;2022-07-18T05:50:37;96303.44;;;15.13;65.15
62103;BME280;48077;48.104;11.702;2022-07-18T05:53:00;96291.00;;;15.24;65.29
62103;BME280;48077;48.104;11.702;2022-07-18T05:55:23;96283.84;;;15.30;65.19
62103;BME280;48077;48.104;11.702;2022-07-18T05:57:47;96284.81;;;15.41;64.85
62103;BME280;48077;48.104;11.702;2022-07-18T06:00:10;96283.69;;;15.53;64.74
62103;BME280;48077;48.104;11.702;2022-07-18T06:02:35;96292.59;;;15.71;64.37
62103;BME280;48077;48.104;11.702;2022-07-18T06:04:59;96285.41;;;15.76;64.23
62103;BME280;48077;48.104;11.702;2022-07-18T06:07:22;96289.16;;;15.92;63.21
62103;BME280;48077;48.104;11.702;2022-07-18T06:09:45;96281.72;;;15.99;63.13
62103;BME280;48077;48.104;11.702;2022-07-18T06:12:09;96297.91;;;16.22;62.95
62103;BME280;48077;48.104;11.702;2022-07-18T06:14:32;96291.00;;;16.31;62.57
62103;BME280;48077;48.104;11.702;2022-07-18T06:16:56;96280.81;;;16.33;61.42
62103;BME280;48077;48.104;11.702;2022-07-18T06:19:19;96289.91;;;16.49;61.28
62103;BME280;48077;48.104;11.702;2022-07-18T06:21:42;96280.56;;;16.56;61.03
62103;BME280;48077;48.104;11.702;2022-07-18T06:24:06;96275.81;;;16.64;61.08
62103;BME280;48077;48.104;11.702;2022-07-18T06:26:29;96281.88;;;16.76;60.38
62103;BME280;48077;48.104;11.702;2022-07-18T06:28:53;96285.28;;;16.88;60.01
62103;BME280;48077;48.104;11.702;2022-07-18T06:31:16;96294.91;;;17.06;58.27
62103;BME280;48077;48.104;11.702;2022-07-18T06:33:40;96289.09;;;17.19;57.76
62103;BME280;48077;48.104;11.702;2022-07-18T06:36:04;96288.94;;;17.31;57.52
62103;BME280;48077;48.104;11.702;2022-07-18T06:38:29;96281.69;;;17.37;57.02
62103;BME280;48077;48.104;11.702;2022-07-18T06:40:52;96289.63;;;17.54;56.64
62103;BME280;48077;48.104;11.702;2022-07-18T06:43:15;96275.97;;;17.60;55.95
62103;BME280;48077;48.104;11.702;2022-07-18T06:45:42;96286.06;;;17.75;54.62
62103;BME280;48077;48.104;11.702;2022-07-18T06:48:05;96268.81;;;17.82;53.49
62103;BME280;48077;48.104;11.702;2022-07-18T06:50:29;96287.34;;;18.00;53.67
62103;BME280;48077;48.104;11.702;2022-07-18T06:52:52;96275.22;;;18.08;52.43
62103;BME280;48077;48.104;11.702;2022-07-18T06:55:16;96269.06;;;18.23;52.05
62103;BME280;48077;48.104;11.702;2022-07-18T06:57:40;96272.38;;;18.35;51.00
62103;BME280;48077;48.104;11.702;2022-07-18T07:00:05;96264.88;;;18.47;51.02
62103;BME280;48077;48.104;11.702;2022-07-18T07:02:29;96270.06;;;18.59;50.99
62103;BME280;48077;48.104;11.702;2022-07-18T07:04:52;96285.03;;;18.82;50.91
62103;BME280;48077;48.104;11.702;2022-07-18T07:07:15;96291.56;;;18.96;50.71
62103;BME280;48077;48.104;11.702;2022-07-18T07:09:39;96287.28;;;19.11;50.90
62103;BME280;48077;48.104;11.702;2022-07-18T07:12:03;96271.03;;;19.11;50.23
62103;BME280;48077;48.104;11.702;2022-07-18T07:14:26;96291.34;;;19.34;49.48
62103;BME280;48077;48.104;11.702;2022-07-18T07:16:49;96267.81;;;19.34;49.30
62103;BME280;48077;48.104;11.702;2022-07-18T07:19:13;96276.47;;;19.52;48.98
62103;BME280;48077;48.104;11.702;2022-07-18T07:21:36;96269.97;;;19.58;48.89
62103;BME280;48077;48.104;11.702;2022-07-18T07:23:59;96299.25;;;19.92;48.14
62103;BME280;48077;48.104;11.702;2022-07-18T07:26:23;96288.38;;;20.07;46.71
62103;BME280;48077;48.104;11.702;2022-07-18T07:28:46;96278.34;;;20.08;46.23
62103;BME280;48077;48.104;11.702;2022-07-18T07:31:10;96276.72;;;20.12;45.89
62103;BME280;48077;48.104;11.702;2022-07-18T07:33:34;96302.16;;;20.31;44.69
62103;BME280;48077;48.104;11.702;2022-07-18T07:35:57;96292.66;;;20.29;44.62
62103;BME280;48077;48.104;11.702;2022-07-18T07:38:20;96263.16;;;20.22;44.31
62103;BME280;48077;48.104;11.702;2022-07-18T07:40:50;96298.00;;;20.59;43.69
62103;BME280;48077;48.104;11.702;2022-07-18T07:43:16;96307.44;;;20.72;43.35
62103;BME280;48077;48.104;11.702;2022-07-18T07:45:41;96307.41;;;20.82;41.81
62103;BME280;48077;48.104;11.702;2022-07-18T07:48:05;96303.31;;;20.90;41.48
62103;BME280;48077;48.104;11.702;2022-07-18T07:50:29;96288.38;;;20.93;41.79
62103;BME280;48077;48.104;11.702;2022-07-18T07:52:52;96289.94;;;21.04;42.13
62103;BME280;48077;48.104;11.702;2022-07-18T07:55:16;96287.75;;;21.06;41.83
62103;BME280;48077;48.104;11.702;2022-07-18T07:57:39;96295.75;;;21.27;42.02
62103;BME280;48077;48.104;11.702;2022-07-18T08:00:07;96280.22;;;21.42;41.07
62103;BME280;48077;48.104;11.702;2022-07-18T08:02:32;96284.78;;;21.52;41.02
62103;BME280;48077;48.104;11.702;2022-07-18T08:04:55;96286.84;;;21.66;40.93
62103;BME280;48077;48.104;11.702;2022-07-18T08:07:19;96272.91;;;21.77;38.79
62103;BME280;48077;48.104;11.702;2022-07-18T08:09:43;96273.53;;;21.93;39.56
62103;BME280;48077;48.104;11.702;2022-07-18T08:12:07;96271.31;;;22.00;38.51
62103;BME280;48077;48.104;11.702;2022-07-18T08:14:30;96260.91;;;22.08;39.54
62103;BME280;48077;48.104;11.702;2022-07-18T08:16:56;96278.66;;;22.29;39.21
62103;BME280;48077;48.104;11.702;2022-07-18T08:19:19;96277.44;;;22.40;37.91
62103;BME280;48077;48.104;11.702;2022-07-18T08:21:42;96282.25;;;22.49;37.16
62103;BME280;48077;48.104;11.702;2022-07-18T08:24:06;96277.34;;;22.51;36.34
62103;BME280;48077;48.104;11.702;2022-07-18T08:26:29;96281.59;;;22.57;36.07
62103;BME280;48077;48.104;11.702;2022-07-18T08:28:53;96280.97;;;22.65;35.12
62103;BME280;48077;48.104;11.702;2022-07-18T08:31:16;96258.69;;;22.63;34.62
62103;BME280;48077;48.104;11.702;2022-07-18T08:33:41;96283.13;;;22.87;34.26
62103;BME280;48077;48.104;11.702;2022-07-18T08:36:04;96273.78;;;22.93;33.04
62103;BME280;48077;48.104;11.702;2022-07-18T08:38:28;96274.19;;;23.06;32.98
62103;BME280;48077;48.104;11.702;2022-07-18T08:40:52;96278.63;;;23.20;32.37
62103;BME280;48077;48.104;11.702;2022-07-18T08:43:17;96273.13;;;23.26;31.27
62103;BME280;48077;48.104;11.702;2022-07-18T08:45:42;96276.41;;;23.41;30.23
62103;BME280;48077;48.104;11.702;2022-07-18T08:48:06;96271.13;;;23.50;30.21
62103;BME280;48077;48.104;11.702;2022-07-18T08:50:30;96273.16;;;23.58;30.27
62103;BME280;48077;48.104;11.702;2022-07-18T08:52:54;96268.22;;;23.60;30.89
62103;BME280;48077;48.104;11.702;2022-07-18T08:55:18;96278.06;;;23.75;30.97
62103;BME280;48077;48.104;11.702;2022-07-18T08:57:41;96270.44;;;23.77;29.20
62103;BME280;48077;48.104;11.702;2022-07-18T09:00:09;96271.22;;;23.78;30.31
62103;BME280;48077;48.104;11.702;2022-07-18T09:02:33;96271.56;;;23.90;29.71
62103;BME280;48077;48.104;11.702;2022-07-18T09:05:00;96257.94;;;23.90;29.33
62103;BME280;48077;48.104;11.702;2022-07-18T09:07:28;96272.41;;;24.04;29.06
62103;BME280;48077;48.104;11.702;2022-07-18T09:09:54;96263.84;;;24.11;29.41
62103;BME280;48077;48.104;11.702;2022-07-18T09:12:18;96250.63;;;24.04;30.39
62103;BME280;48077;48.104;11.702;2022-07-18T09:14:43;96267.88;;;24.41;28.52
62103;BME280;48077;48.104;11.702;2022-07-18T09:17:13;96271.56;;;24.51;27.79
62103;BME280;48077;48.104;11.702;2022-07-18T09:19:40;96268.31;;;24.62;28.48
62103;BME280;48077;48.104;11.702;2022-07-18T09:22:19;96241.25;;;24.66;27.68
62103;BME280;48077;48.104;11.702;2022-07-18T09:25:16;96265.44;;;24.95;27.51
62103;BME280;48077;48.104;11.702;2022-07-18T09:30:12;96258.13;;;25.18;27.01
62103;BME280;48077;48.104;11.702;2022-07-18T09:32:40;96248.72;;;25.24;26.45
62103;BME280;48077;48.104;11.702;2022-07-18T09:35:11;96259.59;;;25.38;27.41
62103;BME280;48077;48.104;11.702;2022-07-18T09:37:35;96245.97;;;25.38;26.40
62103;BME280;48077;48.104;11.702;2022-07-18T09:40:16;96247.94;;;25.47;24.81
62103;BME280;48077;48.104;11.702;2022-07-18T09:42:40;96254.72;;;25.49;26.21
62103;BME280;48077;48.104;11.702;2022-07-18T09:45:03;96238.47;;;25.44;26.24
62103;BME280;48077;48.104;11.702;2022-07-18T09:47:27;96234.22;;;25.60;26.25
62103;BME280;48077;48.104;11.702;2022-07-18T09:49:50;96237.56;;;25.57;25.87
62103;BME280;48077;48.104;11.702;2022-07-18T09:52:14;96248.84;;;25.64;26.21
62103;BME280;48077;48.104;11.702;2022-07-18T09:54:42;96255.41;;;25.77;25.55
62103;BME280;48077;48.104;11.702;2022-07-18T09:57:06;96261.28;;;25.93;24.90
62103;BME280;48077;48.104;11.702;2022-07-18T09:59:30;96261.22;;;26.07;24.15
62103;BME280;48077;48.104;11.702;2022-07-18T10:01:54;96261.91;;;26.13;24.59
62103;BME280;48077;48.104;11.702;2022-07-18T10:04:17;96256.47;;;26.21;25.81
62103;BME280;48077;48.104;11.702;2022-07-18T10:06:40;96248.28;;;26.30;23.87
62103;BME280;48077;48.104;11.702;2022-07-18T10:09:05;96256.56;;;26.48;23.53
62103;BME280;48077;48.104;11.702;2022-07-18T10:11:29;96265.47;;;26.62;24.62
62103;BME280;48077;48.104;11.702;2022-07-18T10:13:54;96246.03;;;26.63;24.59
62103;BME280;48077;48.104;11.702;2022-07-18T10:16:17;96233.81;;;26.70;23.53
62103;BME280;48077;48.104;11.702;2022-07-18T10:18:40;96227.72;;;26.81;23.54
62103;BME280;48077;48.104;11.702;2022-07-18T10:21:11;96236.44;;;26.83;23.58
62103;BME280;48077;48.104;11.702;2022-07-18T10:23:43;96222.56;;;26.71;22.68
62103;BME280;48077;48.104;11.702;2022-07-18T10:29:08;96245.28;;;26.98;23.63
62103;BME280;48077;48.104;11.702;2022-07-18T10:31:34;96251.75;;;27.11;24.34
62103;BME280;48077;48.104;11.702;2022-07-18T10:36:30;96248.69;;;27.12;24.47
62103;BME280;48077;48.104;11.702;2022-07-18T10:39:13;96252.59;;;27.37;23.75
62103;BME280;48077;48.104;11.702;2022-07-18T10:57:41;96243.16;;;28.08;24.78
62103;BME280;48077;48.104;11.702;2022-07-18T11:00:13;96249.56;;;28.30;24.49
62103;BME280;48077;48.104;11.702;2022-07-18T11:02:48;96240.03;;;28.27;24.42
62103;BME280;48077;48.104;11.702;2022-07-18T11:15:57;96223.81;;;28.52;24.10
62103;BME280;48077;48.104;11.702;2022-07-18T11:18:22;96221.63;;;28.66;23.68
62103;BME280;48077;48.104;11.702;2022-07-18T11:20:46;96225.41;;;28.82;23.50
62103;BME280;48077;48.104;11.702;2022-07-18T11:23:19;96226.16;;;28.92;23.38
62103;BME280;48077;48.104;11.702;2022-07-18T11:25:43;96232.06;;;29.02;23.57
62103;BME280;48077;48.104;11.702;2022-07-18T11:28:10;96207.84;;;29.04;23.29
62103;BME280;48077;48.104;11.702;2022-07-18T11:30:34;96216.75;;;29.22;22.58
62103;BME280;48077;48.104;11.702;2022-07-18T11:32:58;96206.78;;;29.18;21.59
62103;BME280;48077;48.104;11.702;2022-07-18T11:35:23;96220.28;;;29.23;21.81
62103;BME280;48077;48.104;11.702;2022-07-18T11:37:47;96210.53;;;29.13;21.81
62103;BME280;48077;48.104;11.702;2022-07-18T11:40:12;96212.91;;;28.94;21.41
62103;BME280;48077;48.104;11.702;2022-07-18T11:42:39;96204.53;;;28.90;21.75
62103;BME280;48077;48.104;11.702;2022-07-18T11:45:04;96203.44;;;29.12;22.38
62103;BME280;48077;48.104;11.702;2022-07-18T11:47:28;96209.03;;;29.37;23.12
62103;BME280;48077;48.104;11.702;2022-07-18T11:49:55;96202.50;;;29.62;21.35
62103;BME280;48077;48.104;11.702;2022-07-18T11:52:19;96200.19;;;29.73;21.29
62103;BME280;48077;48.104;11.702;2022-07-18T11:54:42;96209.09;;;29.70;21.80
62103;BME280;48077;48.104;11.702;2022-07-18T11:57:06;96188.28;;;29.60;20.74
62103;BME280;48077;48.104;11.702;2022-07-18T11:59:41;96196.44;;;29.90;21.30
62103;BME280;48077;48.104;11.702;2022-07-18T12:02:04;96200.81;;;30.16;20.52
62103;BME280;48077;48.104;11.702;2022-07-18T12:04:27;96188.44;;;30.22;21.34
62103;BME280;48077;48.104;11.702;2022-07-18T12:07:20;96201.31;;;30.55;21.38
62103;BME280;48077;48.104;11.702;2022-07-18T12:09:44;96189.94;;;30.56;20.52
62103;BME280;48077;48.104;11.702;2022-07-18T12:12:12;96183.97;;;30.66;20.82
62103;BME280;48077;48.104;11.702;2022-07-18T12:14:35;96190.19;;;30.88;20.90
62103;BME280;48077;48.104;11.702;2022-07-18T12:17:00;96187.75;;;30.99;20.78
62103;BME280;48077;48.104;11.702;2022-07-18T12:19:33;96182.00;;;31.04;19.29
62103;BME280;48077;48.104;11.702;2022-07-18T12:22:10;96178.81;;;30.90;20.09
62103;BME280;48077;48.104;11.702;2022-07-18T12:24:53;96180.97;;;31.09;20.98
62103;BME280;48077;48.104;11.702;2022-07-18T12:27:20;96185.63;;;31.20;20.21
62103;BME280;48077;48.104;11.702;2022-07-18T12:32:17;96173.25;;;31.42;20.80
62103;BME280;48077;48.104;11.702;2022-07-18T12:34:54;96177.84;;;31.51;19.42
62103;BME280;48077;48.104;11.702;2022-07-18T12:37:26;96179.00;;;31.50;19.96
62103;BME280;48077;48.104;11.702;2022-07-18T12:40:03;96171.38;;;31.75;19.88
62103;BME280;48077;48.104;11.702;2022-07-18T12:42:45;96154.56;;;31.64;19.41
62103;BME280;48077;48.104;11.702;2022-07-18T12:45:10;96160.38;;;31.75;20.25
62103;BME280;48077;48.104;11.702;2022-07-18T12:47:34;96164.56;;;31.84;19.61
62103;BME280;48077;48.104;11.702;2022-07-18T12:49:58;96162.22;;;31.99;20.26
62103;BME280;48077;48.104;11.702;2022-07-18T12:52:21;96167.00;;;32.18;19.85
62103;BME280;48077;48.104;11.702;2022-07-18T12:54:46;96161.84;;;32.00;18.99
62103;BME280;48077;48.104;11.702;2022-07-18T12:57:09;96159.63;;;32.06;19.48
62103;BME280;48077;48.104;11.702;2022-07-18T12:59:32;96152.28;;;31.98;18.95
62103;BME280;48077;48.104;11.702;2022-07-18T13:01:56;96153.31;;;32.21;19.84
62103;BME280;48077;48.104;11.702;2022-07-18T13:04:20;96148.09;;;32.52;20.62
62103;BME280;48077;48.104;11.702;2022-07-18T13:06:43;96143.94;;;32.58;20.02
62103;BME280;48077;48.104;11.702;2022-07-18T13:09:06;96155.47;;;32.79;19.99
62103;BME280;48077;48.104;11.702;2022-07-18T13:11:30;96160.91;;;32.95;18.41
62103;BME280;48077;48.104;11.702;2022-07-18T13:13:54;96156.41;;;32.87;18.26